Terminal Aerodrome Forecast
Issued by NWS

Home | Current Version | Previous Version | Graphics & Text | Print | Product List | Glossary On
Versions: 1 2 3 4 5 6 7 8 9 10 11 12 13 14 15 16 17 18 19
847
FTUS42 KMHX 081610 AAA
TAFOAJ
TAF AMD
KOAJ 081610Z 0816/0912 03010KT 6SM -RA OVC008
     FM082100 02008KT 3SM RA OVC007
      AMD LTD TO CLD VIS AND WIND=

USA.gov is the U.S. government's official web portal to all federal, state and local government web resources and services.